Currently 61°F in San Bernardino, California, USA
61°F
61°F / 52°F
3 mph N
0.00"
Thursday, March 23, 2017 11:22 AM PDT

San Bernardino, California Weather Summary
Last 36 Hours

Temperature Winds Hourly Humidity Dewpoint
Time Report Norm Report Norm Max Gusts Precip. Rpt. Norm Rpt. Norm Pressure
1Thu 11:22 AM  60.5°F  65°F  3 mph N  2 mph  11 mph  0.00"  56%  51%  44°F  45°F  N/A
2Thu 11:19 AM  60.7°F  65°F  5 mph SW  2 mph  11 mph  ----  56%  51%  45°F  45°F  N/A
Thu 11:00 AM  59.5°F  64°F  5 mph SW  2 mph  10 mph  0.00"  58%  53%  44°F  46°F  N/A
Thu 10:00 AM  57.5°F  60°F  2 mph S  1 mph  9 mph  0.00"  68%  62%  47°F  47°F  N/A
Thu 09:00 AM  55.2°F  57°F  calm  1 mph  4 mph  0.00"  79%  71%  49°F  47°F  N/A
Thu 08:00 AM  52.3°F  53°F  calm  1 mph  4 mph  0.00"  85%  77%  48°F  46°F  N/A
3Thu 07:34 AM  51.8°F  52°F  calm  1 mph  2 mph  ----  85%  79%  47°F  45°F  N/A
Thu 07:00 AM  52.8°F  52°F  3 mph W  1 mph  5 mph  0.00"  86%  79%  49°F  45°F  N/A
Thu 06:00 AM  53.1°F  52°F  1 mph SW  1 mph  7 mph  0.00"  85%  79%  49°F  45°F  N/A
Thu 05:00 AM  53.4°F  53°F  3 mph SW  1 mph  5 mph  0.00"  84%  78%  48°F  46°F  N/A
Thu 04:00 AM  53.8°F  53°F  calm  1 mph  7 mph  0.00"  83%  77%  49°F  46°F  N/A
Thu 03:00 AM  53.3°F  54°F  3 mph SW  1 mph  10 mph  0.00"  84%  76%  48°F  46°F  N/A
Thu 02:00 AM  54.1°F  55°F  5 mph SW  1 mph  10 mph  0.00"  84%  74%  49°F  47°F  N/A
Thu 01:00 AM  54.8°F  56°F  2 mph N  1 mph  10 mph  0.00"  84%  72%  50°F  47°F  N/A
Thu 12:00 AM  55.6°F  57°F  3 mph SW  1 mph  10 mph  0.00"  83%  70%  50°F  47°F  N/A
Wed 11:00 PM  55.5°F  58°F  calm  2 mph  11 mph  0.00"  81%  67%  50°F  47°F  N/A
Wed 10:00 PM  55.7°F  60°F  2 mph NW  2 mph  17 mph  0.00"  82%  63%  50°F  47°F  N/A
Wed 09:00 PM  56.7°F  61°F  3 mph W  2 mph  19 mph  0.00"  78%  60%  50°F  47°F  N/A
Wed 08:00 PM  57.2°F  63°F  8 mph SW  3 mph  17 mph  0.00"  75%  55%  49°F  47°F  N/A
Wed 07:00 PM  60.2°F  66°F  6 mph W  4 mph  20 mph  0.00"  61%  50%  46°F  46°F  N/A
Wed 06:00 PM  62.9°F  69°F  8 mph SW  5 mph  20 mph  0.00"  54%  43%  45°F  45°F  N/A
Wed 05:00 PM  64.0°F  71°F  9 mph SW  4 mph  20 mph  0.00"  53%  38%  46°F  43°F  N/A
Wed 04:00 PM  66.2°F  72°F  calm  4 mph  16 mph  0.00"  47%  36%  45°F  42°F  N/A
Wed 03:00 PM  66.9°F  72°F  calm  3 mph  13 mph  0.00"  48%  36%  46°F  42°F  N/A
Wed 02:00 PM  65.5°F  71°F  calm  3 mph  13 mph  0.00"  50%  37%  46°F  42°F  N/A
Wed 01:00 PM  64.5°F  69°F  9 mph SW  3 mph  12 mph  0.00"  56%  40%  48°F  43°F  N/A
Wed 12:00 PM  63.1°F  67°F  7 mph W  2 mph  13 mph  0.00"  67%  45%  52°F  44°F  N/A
Wed 11:00 AM  60.6°F  64°F  5 mph SW  2 mph  11 mph  0.00"  85%  52%  56°F  45°F  N/A
Wed 10:00 AM  58.8°F  61°F  4 mph W  1 mph  10 mph  0.00"  95%  61%  57°F  47°F  N/A
Wed 09:00 AM  57.2°F  57°F  2 mph W  1 mph  8 mph  0.00"  98%  69%  56°F  46°F  N/A
Wed 08:00 AM  56.9°F  53°F  calm  1 mph  7 mph  0.04"  98%  76%  56°F  46°F  N/A
Wed 07:00 AM  56.5°F  52°F  calm  1 mph  5 mph  0.04"  98%  78%  56°F  45°F  N/A
Wed 06:00 AM  56.9°F  52°F  calm  1 mph  none  0.01"  98%  78%  56°F  45°F  N/A
Wed 05:00 AM  56.8°F  53°F  calm  1 mph  none  0.02"  98%  77%  56°F  46°F  N/A
Wed 04:00 AM  56.9°F  53°F  calm  1 mph  9 mph  0.05"  97%  76%  56°F  46°F  N/A
Wed 03:00 AM  57.0°F  54°F  calm  1 mph  none  0.02"  97%  75%  56°F  46°F  N/A
Wed 02:00 AM  57.3°F  55°F  calm  1 mph  none  0.02"  97%  73%  56°F  46°F  N/A
Wed 01:00 AM  56.8°F  56°F  calm  1 mph  none  0.02"  97%  70%  56°F  46°F  N/A
Wed 12:00 AM  57.7°F  58°F  calm  1 mph  none  0.02"  97%  68%  57°F  47°F  N/A

  1. Current weather data. No green row appears if the current weather data is also the high or low for the current day.
  2. High temperature for the current day.
  3. Low temperature for the current day.

The San Bernardino, California weather pages are a service of WeatherCurrents.
Copyright ©Thu Mar 23 11:23:04 PDT 2017  WeatherCurrents. All rights reserved. - Submit questions and comments - Privacy Policy

This page automatically refreshes every 10 minutes.